Аэропорт: Кривой Рог. Кривой Рог

ICAO: UKDR

METAR:
2019/03/26 13:00
UKDR 261300Z 28005MPS CAVOK 11/M03 Q1012 R36/09//70 NOSIG
METAR:
2019/03/26 12:00
TAF UKDR 261106Z 2612/2712 28002MPS 9999 BKN015 TX12/2612Z TN00/2704Z 
      TEMPO 2612/2618 34007MPS BKN015 SCT020CB 
      TEMPO 2618/2705 3100 BR BKN007 
     FM270500 26006MPS 9999 BKN010 SCT020CB 
      TEMPO 2705/2712 2100 -SHSNRA BKN007 BKN020CB